Time;durP1;ratioP1;P1;durP2;ratioP2;P2;SDS_P1;SDS_P2;PMS_P1;PMS_P2;Temp;Humidity;BMP_temperature;BMP_pressure;BME280_temperature;BME280_humidity;BME280_pressure;Samples;Min_cycle;Max_cycle;Signal;HPM_P1;HPM_P2
2022/01/25 00:08:44;;;;;;;63.90;22.63;;;;;;;;;;4956179;28;20034;-62
2022/01/25 00:32:08;;;;;;;72.78;23.33;;;;;;;;;;4975130;28;20038;-61
2022/01/25 00:34:40;;;;;;;68.10;23.98;;;;;;;;;;4977634;28;20121;-61
2022/01/25 00:40:45;;;;;;;65.80;22.05;;;;;;;;;;4966638;28;20041;-61
2022/01/25 00:43:17;;;;;;;69.97;21.38;;;;;;;;;;4962141;28;20034;-61
2022/01/25 00:45:43;;;;;;;73.72;20.63;;;;;;;;;;4974235;28;20058;-61
2022/01/25 00:48:18;;;;;;;72.10;22.05;;;;;;;;;;4966421;28;20069;-59
2022/01/25 00:50:44;;;;;;;74.68;23.38;;;;;;;;;;4961707;28;20042;-61
2022/01/25 00:55:58;;;;;;;63.20;21.17;;;;;;;;;;4947595;28;20042;-61
2022/01/25 00:58:24;;;;;;;73.22;23.50;;;;;;;;;;4959986;28;20054;-61
2022/01/25 01:00:50;;;;;;;78.45;24.13;;;;;;;;;;4947341;28;20034;-61
2022/01/25 01:03:23;;;;;;;62.58;20.85;;;;;;;;;;4964617;28;20029;-61
2022/01/25 01:05:48;;;;;;;70.88;22.10;;;;;;;;;;4975867;28;20023;-61
2022/01/25 01:08:18;;;;;;;67.97;22.67;;;;;;;;;;4957680;28;20201;-61
2022/01/25 01:10:44;;;;;;;69.78;22.30;;;;;;;;;;4974970;28;20040;-61
2022/01/25 01:13:47;;;;;;;75.22;22.52;;;;;;;;;;4962644;28;20038;-60
2022/01/25 01:16:09;;;;;;;68.43;23.48;;;;;;;;;;4962484;28;20050;-60
2022/01/25 01:43:36;;;;;;;71.90;21.15;;;;;;;;;;4980763;28;20599;-60
2022/01/25 01:47:00;;;;;;;79.25;23.05;;;;;;;;;;4965992;28;20385;-61
2022/01/25 01:48:56;;;;;;;74.03;23.65;;;;;;;;;;4965724;28;20077;-61
2022/01/25 01:51:34;;;;;;;73.90;24.50;;;;;;;;;;4965226;28;20041;-61
2022/01/25 01:54:02;;;;;;;62.20;20.83;;;;;;;;;;4966867;28;20034;-62
2022/01/25 01:56:27;;;;;;;69.90;21.48;;;;;;;;;;4977513;28;20022;-61
2022/01/25 01:59:06;;;;;;;70.32;22.70;;;;;;;;;;4969880;28;21004;-61
2022/01/25 02:01:38;;;;;;;64.88;22.17;;;;;;;;;;4965296;28;20104;-61
2022/01/25 02:04:07;;;;;;;66.15;23.13;;;;;;;;;;4978418;28;20045;-62
2022/01/25 02:06:35;;;;;;;68.88;23.08;;;;;;;;;;4977820;28;20039;-61
2022/01/25 02:09:00;;;;;;;76.35;25.15;;;;;;;;;;4961193;28;20121;-61
2022/01/25 02:11:26;;;;;;;78.03;24.98;;;;;;;;;;4968597;28;20033;-60
2022/01/25 02:13:52;;;;;;;77.13;25.17;;;;;;;;;;4976108;28;20072;-60
2022/01/25 02:16:37;;;;;;;71.97;22.85;;;;;;;;;;4976989;28;20030;-61
2022/01/25 02:24:34;;;;;;;73.43;22.42;;;;;;;;;;4961684;28;20040;-60
2022/01/25 02:27:03;;;;;;;76.85;24.60;;;;;;;;;;4978837;28;20609;-61
2022/01/25 02:29:33;;;;;;;71.35;22.73;;;;;;;;;;4978697;28;20524;-61
2022/01/25 02:31:59;;;;;;;72.43;24.77;;;;;;;;;;4964484;28;20038;-60
2022/01/25 02:34:25;;;;;;;77.63;23.95;;;;;;;;;;4948869;28;20054;-60
2022/01/25 02:36:57;;;;;;;75.63;23.83;;;;;;;;;;4978509;28;20041;-60
2022/01/25 02:39:24;;;;;;;68.00;21.98;;;;;;;;;;4962247;28;20034;-61
2022/01/25 02:41:53;;;;;;;68.53;23.02;;;;;;;;;;4957970;28;20079;-61
2022/01/25 02:44:26;;;;;;;75.50;23.17;;;;;;;;;;4967529;28;20034;-61
2022/01/25 02:49:29;;;;;;;68.45;22.23;;;;;;;;;;4963630;28;20046;-61
2022/01/25 02:51:57;;;;;;;66.88;23.15;;;;;;;;;;4977047;28;20144;-61
2022/01/25 02:54:22;;;;;;;69.03;23.27;;;;;;;;;;4978692;28;20037;-61
2022/01/25 02:56:50;;;;;;;66.95;22.70;;;;;;;;;;4958141;28;20032;-60
2022/01/25 02:59:20;;;;;;;70.78;24.35;;;;;;;;;;4967914;28;20030;-60
2022/01/25 03:01:47;;;;;;;77.57;24.88;;;;;;;;;;4962221;28;20033;-61
2022/01/25 03:04:13;;;;;;;68.30;23.00;;;;;;;;;;4965346;28;20053;-61
2022/01/25 03:06:43;;;;;;;71.43;22.60;;;;;;;;;;4977711;28;20029;-61
2022/01/25 03:09:08;;;;;;;70.10;23.30;;;;;;;;;;4977485;28;20049;-60
2022/01/25 03:11:36;;;;;;;68.15;23.40;;;;;;;;;;4977574;28;20034;-60
2022/01/25 03:14:11;;;;;;;67.45;23.13;;;;;;;;;;4966881;28;20061;-61
2022/01/25 03:17:03;;;;;;;66.60;23.52;;;;;;;;;;4976277;28;20092;-62
2022/01/25 03:22:04;;;;;;;65.38;21.75;;;;;;;;;;4976736;28;20187;-62
2022/01/25 03:24:32;;;;;;;73.35;25.23;;;;;;;;;;4960997;28;20034;-61
2022/01/25 03:26:57;;;;;;;74.45;22.73;;;;;;;;;;4935764;28;20057;-61
2022/01/25 03:29:23;;;;;;;68.85;22.58;;;;;;;;;;4960711;28;20137;-61
2022/01/25 03:31:49;;;;;;;65.97;21.20;;;;;;;;;;4966470;28;20026;-61
2022/01/25 03:34:17;;;;;;;70.78;23.95;;;;;;;;;;4977411;28;20023;-61
2022/01/25 03:36:42;;;;;;;82.40;25.05;;;;;;;;;;4975741;28;20317;-61
2022/01/25 03:39:11;;;;;;;73.45;24.17;;;;;;;;;;4963756;28;20557;-60
2022/01/25 03:41:39;;;;;;;62.60;21.88;;;;;;;;;;4960461;28;20030;-62
2022/01/25 03:44:09;;;;;;;79.32;25.35;;;;;;;;;;4975785;28;20362;-61
2022/01/25 03:52:06;;;;;;;57.15;19.95;;;;;;;;;;4976302;28;20997;-60
2022/01/25 03:54:37;;;;;;;69.80;22.63;;;;;;;;;;4975386;28;20038;-60
2022/01/25 03:57:07;;;;;;;70.53;23.73;;;;;;;;;;4950765;28;20022;-61
2022/01/25 03:59:33;;;;;;;61.95;21.77;;;;;;;;;;4964719;28;20107;-60
2022/01/25 04:02:03;;;;;;;75.07;24.90;;;;;;;;;;4950818;28;20734;-61
2022/01/25 04:04:31;;;;;;;66.57;24.02;;;;;;;;;;4943729;28;20041;-61
2022/01/25 04:07:07;;;;;;;69.90;21.65;;;;;;;;;;4962868;28;20046;-60
2022/01/25 04:09:33;;;;;;;73.05;24.77;;;;;;;;;;4962168;28;20215;-61
2022/01/25 04:12:05;;;;;;;76.90;24.20;;;;;;;;;;4946304;28;20034;-61
2022/01/25 04:14:33;;;;;;;74.57;23.10;;;;;;;;;;4959966;28;20345;-60
2022/01/25 04:17:06;;;;;;;66.68;20.83;;;;;;;;;;4975894;28;20483;-61
2022/01/25 04:19:46;;;;;;;67.75;22.92;;;;;;;;;;4976929;28;20087;-60
2022/01/25 04:25:02;;;;;;;84.47;23.60;;;;;;;;;;4964774;28;20049;-60
2022/01/25 04:27:33;;;;;;;66.13;21.77;;;;;;;;;;4977004;28;20034;-60
2022/01/25 04:30:04;;;;;;;71.20;23.65;;;;;;;;;;4944178;28;20140;-61
2022/01/25 04:32:48;;;;;;;73.38;24.63;;;;;;;;;;4960833;28;20027;-60
2022/01/25 04:57:22;;;;;;;67.78;23.00;;;;;;;;;;4979401;28;20034;-61
2022/01/25 04:59:49;;;;;;;71.07;22.73;;;;;;;;;;4964544;28;20073;-61
2022/01/25 05:03:11;;;;;;;73.03;22.77;;;;;;;;;;4978335;28;20720;-61
2022/01/25 05:10:23;;;;;;;69.93;22.80;;;;;;;;;;4963678;28;20045;-61
2022/01/25 05:13:15;;;;;;;66.32;22.15;;;;;;;;;;4970552;28;20065;-60
2022/01/25 05:23:30;;;;;;;68.38;22.17;;;;;;;;;;4979712;28;20065;-60
2022/01/25 05:25:59;;;;;;;66.60;21.95;;;;;;;;;;4967890;28;20037;-60
2022/01/25 05:28:24;;;;;;;67.32;22.02;;;;;;;;;;4961933;28;20050;-62
2022/01/25 05:30:50;;;;;;;68.63;23.55;;;;;;;;;;4967168;28;20046;-60
2022/01/25 05:33:18;;;;;;;67.35;21.52;;;;;;;;;;4960727;28;20064;-61
2022/01/25 05:35:44;;;;;;;60.70;21.20;;;;;;;;;;4967983;28;20032;-61
2022/01/25 05:38:11;;;;;;;72.45;22.77;;;;;;;;;;4979798;28;20042;-61
2022/01/25 05:40:45;;;;;;;68.80;22.95;;;;;;;;;;4979858;28;20080;-62
2022/01/25 05:46:02;;;;;;;74.28;22.13;;;;;;;;;;4979919;28;20486;-61
2022/01/25 05:48:30;;;;;;;68.60;23.77;;;;;;;;;;4980614;28;20037;-62
2022/01/25 05:50:59;;;;;;;65.45;23.98;;;;;;;;;;4969547;28;20030;-61
2022/01/25 05:53:27;;;;;;;62.22;21.60;;;;;;;;;;4952421;28;20054;-62
2022/01/25 05:55:52;;;;;;;68.82;23.55;;;;;;;;;;4977671;28;20113;-60
2022/01/25 05:58:20;;;;;;;72.22;24.65;;;;;;;;;;4960898;28;20037;-60
2022/01/25 06:00:50;;;;;;;66.10;23.05;;;;;;;;;;4975115;28;20464;-62
2022/01/25 06:03:18;;;;;;;63.63;22.65;;;;;;;;;;4950004;28;20549;-61
2022/01/25 06:05:44;;;;;;;84.35;23.83;;;;;;;;;;4944899;28;20413;-62
2022/01/25 06:08:09;;;;;;;72.03;23.45;;;;;;;;;;4977280;28;20033;-61
2022/01/25 06:10:40;;;;;;;69.90;21.38;;;;;;;;;;4954266;28;20038;-61
2022/01/25 06:13:16;;;;;;;69.18;22.92;;;;;;;;;;4977039;28;20569;-60
2022/01/25 06:15:43;;;;;;;71.38;23.27;;;;;;;;;;4944602;28;20041;-61
2022/01/25 06:18:10;;;;;;;59.03;22.63;;;;;;;;;;4977730;28;20036;-62
2022/01/25 06:20:36;;;;;;;64.72;22.30;;;;;;;;;;4964633;28;20018;-61
2022/01/25 06:23:03;;;;;;;67.35;23.02;;;;;;;;;;4950481;28;20489;-61
2022/01/25 06:25:31;;;;;;;69.65;22.75;;;;;;;;;;4958550;28;20045;-60
2022/01/25 06:27:59;;;;;;;82.43;23.05;;;;;;;;;;4952941;28;20026;-61
2022/01/25 06:30:27;;;;;;;73.47;23.02;;;;;;;;;;4975679;28;20054;-61
2022/01/25 06:32:53;;;;;;;70.35;23.73;;;;;;;;;;4976443;28;20042;-61
2022/01/25 06:35:28;;;;;;;75.18;22.95;;;;;;;;;;4977579;28;20501;-61
2022/01/25 06:37:55;;;;;;;75.68;23.50;;;;;;;;;;4977261;28;20034;-62
2022/01/25 06:40:21;;;;;;;70.05;21.88;;;;;;;;;;4977684;28;20026;-61
2022/01/25 06:42:51;;;;;;;78.10;24.10;;;;;;;;;;4952067;28;20034;-61
2022/01/25 06:45:24;;;;;;;72.45;24.08;;;;;;;;;;4950954;28;20157;-61
2022/01/25 06:47:54;;;;;;;69.30;23.55;;;;;;;;;;4977019;28;20637;-61
2022/01/25 06:50:24;;;;;;;82.35;23.77;;;;;;;;;;4976429;28;20117;-60
2022/01/25 06:52:50;;;;;;;72.30;22.10;;;;;;;;;;4969185;28;20060;-62
2022/01/25 06:55:20;;;;;;;78.10;23.17;;;;;;;;;;4975922;28;20042;-61
2022/01/25 06:57:46;;;;;;;73.93;23.60;;;;;;;;;;4962164;28;20053;-60
2022/01/25 07:00:15;;;;;;;70.43;22.55;;;;;;;;;;4953346;28;20022;-60
2022/01/25 07:02:43;;;;;;;71.50;23.60;;;;;;;;;;4961730;28;20117;-60
2022/01/25 07:05:11;;;;;;;65.28;22.40;;;;;;;;;;4977829;28;20040;-60
2022/01/25 07:07:37;;;;;;;70.72;22.65;;;;;;;;;;4967611;28;20030;-60
2022/01/25 07:10:04;;;;;;;74.53;22.42;;;;;;;;;;4967536;28;20033;-60
2022/01/25 07:12:32;;;;;;;73.75;23.77;;;;;;;;;;4977897;28;20842;-60
2022/01/25 07:15:00;;;;;;;69.82;22.88;;;;;;;;;;4978625;28;20026;-61
2022/01/25 07:17:25;;;;;;;71.25;21.73;;;;;;;;;;4968838;28;20045;-61
2022/01/25 07:19:50;;;;;;;70.65;22.17;;;;;;;;;;4961657;28;20678;-61
2022/01/25 07:22:17;;;;;;;72.70;23.02;;;;;;;;;;4978447;28;20482;-61
2022/01/25 07:24:42;;;;;;;64.65;22.73;;;;;;;;;;4979749;28;20119;-62
2022/01/25 07:27:10;;;;;;;67.85;22.67;;;;;;;;;;4978578;28;20041;-62
2022/01/25 07:29:37;;;;;;;68.65;22.55;;;;;;;;;;4966880;28;20050;-60
2022/01/25 07:32:08;;;;;;;65.82;21.58;;;;;;;;;;4966450;28;21869;-61
2022/01/25 07:34:38;;;;;;;67.57;23.42;;;;;;;;;;4977045;28;20026;-62
2022/01/25 07:37:06;;;;;;;74.43;23.77;;;;;;;;;;4973280;28;20037;-61
2022/01/25 07:39:34;;;;;;;76.38;25.75;;;;;;;;;;4973388;28;20069;-61
2022/01/25 07:42:05;;;;;;;75.07;23.35;;;;;;;;;;4945538;28;20030;-61
2022/01/25 07:44:33;;;;;;;77.20;23.50;;;;;;;;;;4978208;28;20141;-60
2022/01/25 07:47:01;;;;;;;76.30;23.38;;;;;;;;;;4952248;28;20602;-62
2022/01/25 07:49:32;;;;;;;71.70;24.30;;;;;;;;;;4962407;28;20149;-61
2022/01/25 07:52:02;;;;;;;85.18;26.33;;;;;;;;;;4977544;28;20036;-61
2022/01/25 07:54:30;;;;;;;74.50;21.63;;;;;;;;;;4945057;28;20661;-61
2022/01/25 07:56:57;;;;;;;75.18;24.67;;;;;;;;;;4976782;28;20015;-61
2022/01/25 07:59:23;;;;;;;74.57;23.33;;;;;;;;;;4967967;28;20045;-62
2022/01/25 08:01:49;;;;;;;75.90;23.67;;;;;;;;;;4936393;28;20026;-61
2022/01/25 08:04:15;;;;;;;71.43;22.80;;;;;;;;;;4978217;28;20032;-60
2022/01/25 08:06:42;;;;;;;83.75;25.48;;;;;;;;;;4960630;28;20032;-60
2022/01/25 08:11:47;;;;;;;84.30;25.75;;;;;;;;;;5109625;23;20069;-61
2022/01/25 08:14:17;;;;;;;69.45;23.95;;;;;;;;;;4979776;28;20041;-60
2022/01/25 08:16:44;;;;;;;67.90;24.02;;;;;;;;;;4964099;28;20035;-61
2022/01/25 08:19:10;;;;;;;71.55;24.02;;;;;;;;;;4958916;28;20042;-60
2022/01/25 08:22:06;;;;;;;79.82;25.58;;;;;;;;;;4960568;28;21014;-61
2022/01/25 08:24:37;;;;;;;74.13;22.73;;;;;;;;;;4944377;28;20058;-61
2022/01/25 08:30:42;;;;;;;78.15;25.15;;;;;;;;;;4959510;28;20104;-61
2022/01/25 08:33:14;;;;;;;77.35;23.52;;;;;;;;;;4945072;28;20677;-61
2022/01/25 08:35:39;;;;;;;76.38;24.65;;;;;;;;;;4948238;28;20953;-61
2022/01/25 08:41:44;;;;;;;77.82;23.25;;;;;;;;;;4960082;28;20052;-61
2022/01/25 08:44:12;;;;;;;72.97;23.80;;;;;;;;;;4960125;28;20031;-62
2022/01/25 08:46:43;;;;;;;75.50;26.02;;;;;;;;;;4923759;28;20133;-61
2022/01/25 08:49:11;;;;;;;75.57;24.17;;;;;;;;;;4960984;28;20023;-61
2022/01/25 08:52:10;;;;;;;85.38;25.23;;;;;;;;;;4959195;28;20160;-61
2022/01/25 08:54:36;;;;;;;67.25;23.40;;;;;;;;;;4960337;28;20052;-60
2022/01/25 08:57:04;;;;;;;81.63;25.73;;;;;;;;;;4958629;28;20044;-62
2022/01/25 08:59:30;;;;;;;75.78;25.73;;;;;;;;;;4958888;28;20038;-61
2022/01/25 09:01:57;;;;;;;70.30;24.17;;;;;;;;;;4960452;28;20597;-61
2022/01/25 09:04:25;;;;;;;79.68;24.10;;;;;;;;;;4949285;28;20492;-62
2022/01/25 09:06:53;;;;;;;74.35;23.35;;;;;;;;;;4959583;28;20039;-61
2022/01/25 09:09:23;;;;;;;86.47;26.50;;;;;;;;;;4961181;28;20039;-60
2022/01/25 09:11:51;;;;;;;67.60;24.52;;;;;;;;;;4960929;28;20054;-62
2022/01/25 09:14:16;;;;;;;73.20;23.88;;;;;;;;;;4933310;28;20045;-61
2022/01/25 09:16:45;;;;;;;75.93;23.83;;;;;;;;;;4947679;28;20023;-61
2022/01/25 09:19:16;;;;;;;68.50;22.23;;;;;;;;;;4944105;28;20960;-62
2022/01/25 09:21:41;;;;;;;72.45;24.70;;;;;;;;;;4961003;28;20030;-60
2022/01/25 09:24:08;;;;;;;80.82;24.30;;;;;;;;;;4941886;28;20038;-60
2022/01/25 09:26:36;;;;;;;78.05;23.77;;;;;;;;;;4949185;28;20026;-61
2022/01/25 09:29:06;;;;;;;76.88;23.23;;;;;;;;;;4960562;28;21947;-61
2022/01/25 09:31:32;;;;;;;76.55;23.70;;;;;;;;;;4959087;28;20094;-61
2022/01/25 09:34:00;;;;;;;82.53;24.52;;;;;;;;;;4960384;28;20030;-61
2022/01/25 09:36:29;;;;;;;70.07;22.90;;;;;;;;;;4958846;28;20041;-61
2022/01/25 09:38:57;;;;;;;75.85;23.67;;;;;;;;;;4949277;28;20025;-61
2022/01/25 09:41:23;;;;;;;81.00;24.38;;;;;;;;;;4951859;28;20046;-61
2022/01/25 09:43:50;;;;;;;76.00;24.17;;;;;;;;;;4935025;28;20034;-61
2022/01/25 09:49:57;;;;;;;75.53;24.38;;;;;;;;;;4964293;28;20037;-61
2022/01/25 09:52:23;;;;;;;73.95;23.70;;;;;;;;;;4942532;28;20034;-60
2022/01/25 09:54:52;;;;;;;73.68;23.67;;;;;;;;;;4951973;28;20085;-61
2022/01/25 09:57:23;;;;;;;79.63;24.10;;;;;;;;;;4942282;28;20057;-61
2022/01/25 10:00:06;;;;;;;78.05;22.95;;;;;;;;;;4933574;28;20050;-61
2022/01/25 10:02:51;;;;;;;75.32;24.75;;;;;;;;;;4963244;28;20062;-61
2022/01/25 10:05:28;;;;;;;75.32;24.85;;;;;;;;;;4949556;28;20052;-61
2022/01/25 10:07:59;;;;;;;79.65;24.85;;;;;;;;;;4961842;28;20031;-60
2022/01/25 10:10:28;;;;;;;75.50;24.73;;;;;;;;;;4962232;28;20445;-60
2022/01/25 10:13:16;;;;;;;78.72;24.98;;;;;;;;;;4962817;28;20079;-63
2022/01/25 10:15:42;;;;;;;70.97;22.98;;;;;;;;;;4962508;28;20030;-62
2022/01/25 10:18:08;;;;;;;73.95;24.17;;;;;;;;;;4961263;28;20038;-61
2022/01/25 10:20:40;;;;;;;70.28;23.70;;;;;;;;;;4945310;28;20145;-62
2022/01/25 10:23:11;;;;;;;78.47;22.90;;;;;;;;;;4952120;28;20023;-61
2022/01/25 10:26:10;;;;;;;83.38;24.00;;;;;;;;;;4963496;28;22129;-61
2022/01/25 10:28:38;;;;;;;79.75;25.55;;;;;;;;;;4962577;28;20130;-61
2022/01/25 10:31:06;;;;;;;83.45;25.38;;;;;;;;;;4963336;28;20034;-60
2022/01/25 10:33:40;;;;;;;82.57;25.05;;;;;;;;;;4963002;28;20026;-61
2022/01/25 10:36:19;;;;;;;75.22;24.90;;;;;;;;;;4962603;28;20125;-61
2022/01/25 10:38:52;;;;;;;78.35;23.48;;;;;;;;;;4951053;28;20183;-62
2022/01/25 10:41:22;;;;;;;76.53;24.35;;;;;;;;;;4957593;28;20149;-61
2022/01/25 10:43:53;;;;;;;82.55;25.73;;;;;;;;;;4960327;28;20034;-61
2022/01/25 10:46:38;;;;;;;80.82;24.42;;;;;;;;;;4961836;28;20073;-60
2022/01/25 10:52:24;;;;;;;78.97;22.38;;;;;;;;;;4961290;28;19928;-62
2022/01/25 10:54:53;;;;;;;71.97;25.50;;;;;;;;;;4949929;28;20042;-61
2022/01/25 10:57:24;;;;;;;69.68;23.73;;;;;;;;;;4960673;28;20870;-60
2022/01/25 10:59:57;;;;;;;68.10;24.25;;;;;;;;;;4960319;28;20038;-60
2022/01/25 11:05:36;;;;;;;81.03;25.10;;;;;;;;;;4949720;28;20141;-61
2022/01/25 11:08:14;;;;;;;70.85;22.95;;;;;;;;;;4933692;28;20030;-62
2022/01/25 11:10:48;;;;;;;82.55;24.98;;;;;;;;;;4945895;28;20074;-60
2022/01/25 11:15:53;;;;;;;75.90;24.63;;;;;;;;;;4941238;28;20043;-62
2022/01/25 11:18:21;;;;;;;74.75;24.42;;;;;;;;;;4952467;28;20045;-60
2022/01/25 11:20:49;;;;;;;75.43;24.73;;;;;;;;;;4938015;28;20109;-61
2022/01/25 11:23:37;;;;;;;83.63;25.92;;;;;;;;;;4940140;28;20085;-61
2022/01/25 11:26:09;;;;;;;68.10;22.75;;;;;;;;;;4940977;28;20034;-61
2022/01/25 11:28:38;;;;;;;69.75;23.80;;;;;;;;;;4947830;28;20109;-60
2022/01/25 11:31:35;;;;;;;81.38;24.10;;;;;;;;;;4948472;28;20034;-61
2022/01/25 11:37:50;;;;;;;70.95;22.88;;;;;;;;;;4942961;28;20490;-62
2022/01/25 11:40:30;;;;;;;78.50;25.05;;;;;;;;;;4891347;29;20072;-61
2022/01/25 11:42:57;;;;;;;78.32;24.08;;;;;;;;;;4917564;28;20042;-60
2022/01/25 11:45:26;;;;;;;79.22;24.80;;;;;;;;;;4937107;28;20049;-60
2022/01/25 11:47:55;;;;;;;79.50;23.73;;;;;;;;;;4955574;28;20031;-61
2022/01/25 11:50:24;;;;;;;78.90;24.60;;;;;;;;;;4955180;28;20125;-61
2022/01/25 11:52:56;;;;;;;76.13;24.08;;;;;;;;;;4939714;28;20070;-60
2022/01/25 11:55:41;;;;;;;84.67;25.63;;;;;;;;;;4936971;28;20089;-62
2022/01/25 11:58:29;;;;;;;77.57;24.77;;;;;;;;;;4940981;28;20042;-60
2022/01/25 12:00:55;;;;;;;74.57;24.23;;;;;;;;;;4943946;28;20074;-61
2022/01/25 12:06:37;;;;;;;81.07;23.30;;;;;;;;;;4943038;28;20039;-61
2022/01/25 12:12:07;;;;;;;73.07;24.02;;;;;;;;;;4952089;28;20050;-61
2022/01/25 12:14:43;;;;;;;65.72;22.75;;;;;;;;;;4933217;28;20096;-61
2022/01/25 12:20:50;;;;;;;81.07;25.20;;;;;;;;;;4959948;28;20161;-62
2022/01/25 12:30:26;;;;;;;91.13;24.88;;;;;;;;;;4960751;28;20038;-59
2022/01/25 12:32:55;;;;;;;87.68;25.13;;;;;;;;;;4957365;28;20029;-61
2022/01/25 12:38:38;;;;;;;73.90;22.40;;;;;;;;;;4958403;28;20031;-61
2022/01/25 12:41:10;;;;;;;76.13;25.15;;;;;;;;;;4956812;28;20039;-62
2022/01/25 12:43:44;;;;;;;82.00;26.35;;;;;;;;;;4950382;28;20031;-60
2022/01/25 12:46:13;;;;;;;80.60;24.40;;;;;;;;;;4960023;28;20061;-61
2022/01/25 12:48:48;;;;;;;90.50;25.67;;;;;;;;;;4960315;28;20034;-63
2022/01/25 12:51:17;;;;;;;87.10;25.88;;;;;;;;;;4960494;28;20062;-61
2022/01/25 12:53:45;;;;;;;79.03;25.58;;;;;;;;;;4961512;28;20093;-61
2022/01/25 12:56:14;;;;;;;75.43;24.88;;;;;;;;;;4958631;28;20234;-61
2022/01/25 13:02:19;;;;;;;74.95;25.08;;;;;;;;;;4957756;28;20050;-60
2022/01/25 13:04:47;;;;;;;79.75;25.48;;;;;;;;;;4955569;28;20046;-61
2022/01/25 13:07:15;;;;;;;78.30;25.52;;;;;;;;;;4915210;28;20026;-59
2022/01/25 13:09:45;;;;;;;72.35;22.92;;;;;;;;;;4943843;28;20042;-61
2022/01/25 13:12:15;;;;;;;73.50;22.42;;;;;;;;;;4948701;28;20119;-61
2022/01/25 13:15:14;;;;;;;70.88;24.42;;;;;;;;;;4928097;28;20086;-60
2022/01/25 13:17:40;;;;;;;79.20;23.70;;;;;;;;;;4963920;28;20027;-60
2022/01/25 13:20:05;;;;;;;84.32;27.35;;;;;;;;;;4946188;28;20031;-60
2022/01/25 13:26:14;;;;;;;75.32;24.15;;;;;;;;;;4964593;28;20105;-60
2022/01/25 13:31:13;;;;;;;79.80;26.05;;;;;;;;;;4952590;28;20054;-60
2022/01/25 13:36:51;;;;;;;83.28;25.70;;;;;;;;;;4963858;28;20038;-61
2022/01/25 13:39:20;;;;;;;83.80;25.77;;;;;;;;;;4933756;28;20493;-61
2022/01/25 13:48:10;;;;;;;79.60;25.38;;;;;;;;;;4947309;28;20030;-61
2022/01/25 13:50:39;;;;;;;89.53;24.08;;;;;;;;;;4963993;28;20045;-61
2022/01/25 13:53:05;;;;;;;76.88;24.25;;;;;;;;;;4952607;28;20034;-61
2022/01/25 13:59:09;;;;;;;90.70;24.33;;;;;;;;;;4961426;28;20061;-60
2022/01/25 14:01:37;;;;;;;70.45;23.30;;;;;;;;;;4953771;28;20509;-60
2022/01/25 14:04:27;;;;;;;91.43;26.33;;;;;;;;;;4961023;28;20058;-61
2022/01/25 14:06:56;;;;;;;80.63;24.60;;;;;;;;;;4943624;28;21346;-61
2022/01/25 14:09:28;;;;;;;69.82;23.30;;;;;;;;;;4963411;28;20034;-61
2022/01/25 14:23:21;;;;;;;75.95;25.00;;;;;;;;;;4960006;28;20035;-60
2022/01/25 14:26:01;;;;;;;72.18;23.52;;;;;;;;;;4963391;28;20026;-62
2022/01/25 14:28:27;;;;;;;72.07;23.63;;;;;;;;;;4954109;28;20123;-61
2022/01/25 14:31:01;;;;;;;79.05;24.38;;;;;;;;;;4961833;28;20030;-61
2022/01/25 14:33:32;;;;;;;75.38;25.55;;;;;;;;;;4950378;28;20130;-61
2022/01/25 14:36:00;;;;;;;81.10;24.98;;;;;;;;;;4946031;28;20152;-61
2022/01/25 14:38:28;;;;;;;77.45;24.02;;;;;;;;;;4961958;28;20026;-60
2022/01/25 14:40:56;;;;;;;82.60;24.38;;;;;;;;;;4962106;28;20038;-60
2022/01/25 14:43:31;;;;;;;71.70;23.55;;;;;;;;;;4945402;28;20093;-61
2022/01/25 14:46:13;;;;;;;83.22;25.30;;;;;;;;;;4962649;28;20030;-61
2022/01/25 14:48:42;;;;;;;77.47;24.75;;;;;;;;;;4962146;28;21072;-61
2022/01/25 14:51:11;;;;;;;84.15;25.20;;;;;;;;;;4962806;28;20033;-61
2022/01/25 14:53:37;;;;;;;93.05;27.02;;;;;;;;;;4948146;28;20453;-61
2022/01/25 14:56:07;;;;;;;83.78;25.15;;;;;;;;;;4961870;28;20462;-61
2022/01/25 15:02:10;;;;;;;83.45;24.83;;;;;;;;;;4963468;28;20519;-61
2022/01/25 15:04:38;;;;;;;75.80;25.15;;;;;;;;;;4958916;28;20029;-60
2022/01/25 15:07:05;;;;;;;83.68;25.52;;;;;;;;;;4947798;28;21124;-62
2022/01/25 15:09:31;;;;;;;90.60;24.50;;;;;;;;;;4953814;28;20070;-60
2022/01/25 15:11:56;;;;;;;81.10;24.33;;;;;;;;;;4935799;28;20046;-62
2022/01/25 15:14:34;;;;;;;96.13;25.23;;;;;;;;;;4946722;28;20034;-61
2022/01/25 15:17:43;;;;;;;84.47;26.92;;;;;;;;;;4950170;28;20186;-61
2022/01/25 15:20:09;;;;;;;;;;;;;;;;;;4963150;28;20031;-61
2022/01/25 15:22:37;;;;;;;91.03;25.30;;;;;;;;;;4960835;28;19953;-60
2022/01/25 15:25:04;;;;;;;89.43;27.20;;;;;;;;;;4949840;28;20046;-60
2022/01/25 15:27:31;;;;;;;90.40;25.67;;;;;;;;;;4944668;28;20060;-61
2022/01/25 15:29:58;;;;;;;98.90;25.98;;;;;;;;;;4947414;28;20030;-61
2022/01/25 15:32:23;;;;;;;88.82;25.52;;;;;;;;;;4960012;28;20033;-61
2022/01/25 15:34:51;;;;;;;94.80;26.92;;;;;;;;;;4961230;28;20116;-61
2022/01/25 15:37:19;;;;;;;100.32;29.13;;;;;;;;;;4960597;28;20060;-60
2022/01/25 15:39:47;;;;;;;91.40;27.63;;;;;;;;;;4949977;28;20089;-62
2022/01/25 15:46:06;;;;;;;84.97;24.40;;;;;;;;;;4960827;28;20159;-62
2022/01/25 15:48:32;;;;;;;93.68;26.00;;;;;;;;;;4949201;28;20026;-61
2022/01/25 15:50:58;;;;;;;94.78;28.10;;;;;;;;;;4949835;28;20030;-61
2022/01/25 15:53:45;;;;;;;99.47;27.15;;;;;;;;;;4951400;28;21103;-61
2022/01/25 15:56:10;;;;;;;102.00;28.00;;;;;;;;;;4951497;28;20493;-60
2022/01/25 15:58:35;;;;;;;82.82;25.63;;;;;;;;;;4947397;28;20031;-60
2022/01/25 16:01:26;;;;;;;100.13;27.75;;;;;;;;;;4956940;28;20049;-62
2022/01/25 16:03:54;;;;;;;111.15;28.98;;;;;;;;;;4959628;28;20037;-62
2022/01/25 16:06:22;;;;;;;88.40;25.73;;;;;;;;;;4959725;28;20026;-60
2022/01/25 16:09:02;;;;;;;87.82;24.92;;;;;;;;;;4952540;28;20041;-61
2022/01/25 16:11:33;;;;;;;103.68;25.20;;;;;;;;;;4959549;28;20054;-61
2022/01/25 16:18:01;;;;;;;94.68;24.77;;;;;;;;;;4958054;28;20034;-62
2022/01/25 16:20:27;;;;;;;95.43;25.25;;;;;;;;;;4959311;28;20613;-61
2022/01/25 16:22:55;;;;;;;100.32;26.35;;;;;;;;;;4960071;28;20030;-61
2022/01/25 16:26:01;;;;;;;100.45;27.35;;;;;;;;;;4951825;28;20037;-61
2022/01/25 16:28:27;;;;;;;79.60;24.15;;;;;;;;;;4959813;28;20747;-62
2022/01/25 16:30:59;;;;;;;96.40;26.90;;;;;;;;;;4961206;28;20418;-61
2022/01/25 16:33:29;;;;;;;99.90;27.02;;;;;;;;;;4943517;28;20039;-60
2022/01/25 16:39:30;;;;;;;89.45;26.42;;;;;;;;;;4960052;28;20033;-61
2022/01/25 16:41:58;;;;;;;98.60;28.35;;;;;;;;;;4934359;28;20039;-61
2022/01/25 16:44:24;;;;;;;96.32;23.88;;;;;;;;;;4960482;28;20058;-60
2022/01/25 16:46:52;;;;;;;105.40;28.30;;;;;;;;;;4959813;28;20536;-61
2022/01/25 16:49:17;;;;;;;101.20;25.80;;;;;;;;;;4961178;28;21325;-60
2022/01/25 16:51:45;;;;;;;109.47;28.45;;;;;;;;;;4963693;28;20156;-60
2022/01/25 16:54:16;;;;;;;103.30;26.77;;;;;;;;;;4953046;28;20517;-61
2022/01/25 16:56:46;;;;;;;106.57;25.70;;;;;;;;;;4934562;28;20045;-61
2022/01/25 16:59:15;;;;;;;98.00;26.13;;;;;;;;;;4964979;28;20405;-61
2022/01/25 17:01:43;;;;;;;92.05;25.05;;;;;;;;;;4962250;28;20382;-61
2022/01/25 17:04:12;;;;;;;106.00;27.30;;;;;;;;;;4954694;28;20033;-61
2022/01/25 17:06:37;;;;;;;111.88;26.35;;;;;;;;;;4946849;28;20034;-61
2022/01/25 17:09:05;;;;;;;107.15;26.95;;;;;;;;;;4962393;28;20498;-61
2022/01/25 17:11:36;;;;;;;109.93;25.77;;;;;;;;;;4948077;28;20068;-61
2022/01/25 17:14:02;;;;;;;102.68;25.92;;;;;;;;;;4962838;28;20042;-61
2022/01/25 17:16:30;;;;;;;114.22;28.38;;;;;;;;;;4950199;28;20117;-61
2022/01/25 17:18:56;;;;;;;101.70;27.88;;;;;;;;;;4953008;28;20045;-61
2022/01/25 17:21:23;;;;;;;77.53;24.48;;;;;;;;;;4963746;28;20026;-59
2022/01/25 17:23:51;;;;;;;94.00;24.67;;;;;;;;;;4962890;28;20035;-60
2022/01/25 17:26:21;;;;;;;110.45;26.75;;;;;;;;;;4953308;28;20029;-60
2022/01/25 17:28:49;;;;;;;112.93;27.00;;;;;;;;;;4953096;28;20049;-61
2022/01/25 17:31:19;;;;;;;99.57;26.70;;;;;;;;;;4961409;28;20046;-61
2022/01/25 17:33:46;;;;;;;97.03;25.13;;;;;;;;;;4944003;28;20081;-61
2022/01/25 17:36:17;;;;;;;103.75;26.75;;;;;;;;;;4963874;28;20058;-61
2022/01/25 17:38:44;;;;;;;99.93;26.10;;;;;;;;;;4962383;28;20034;-61
2022/01/25 17:41:14;;;;;;;110.82;28.73;;;;;;;;;;4963848;28;20049;-61
2022/01/25 17:43:46;;;;;;;105.93;25.73;;;;;;;;;;4947065;28;20438;-61
2022/01/25 17:46:13;;;;;;;95.13;26.35;;;;;;;;;;4964863;28;20162;-60
2022/01/25 17:48:39;;;;;;;108.65;27.27;;;;;;;;;;4948871;28;20039;-60
2022/01/25 17:51:04;;;;;;;108.57;27.73;;;;;;;;;;4939172;28;20042;-61
2022/01/25 17:53:29;;;;;;;108.78;25.40;;;;;;;;;;4943314;28;20039;-61
2022/01/25 17:55:55;;;;;;;113.00;27.73;;;;;;;;;;4962281;28;20026;-62
2022/01/25 17:58:26;;;;;;;108.15;28.88;;;;;;;;;;4948496;28;20038;-60
2022/01/25 18:00:52;;;;;;;107.40;28.90;;;;;;;;;;4947736;28;20038;-60
2022/01/25 18:03:20;;;;;;;116.53;27.48;;;;;;;;;;4943471;28;20054;-62
2022/01/25 18:05:48;;;;;;;114.20;27.58;;;;;;;;;;4957949;28;20053;-61